Time;durP1;ratioP1;P1;durP2;ratioP2;P2;SDS_P1;SDS_P2;PMS_P1;PMS_P2;Temp;Humidity;BMP_temperature;BMP_pressure;BME280_temperature;BME280_humidity;BME280_pressure;Samples;Min_cycle;Max_cycle;Signal;HPM_P1;HPM_P2
2021/04/27 00:00:12;;;;;;;;;;;;;;;;;;7305019;40;1938;-21
2021/04/27 00:05:33;;;;;;;;;;;;;;;;;;7318815;40;985;-20
2021/04/27 00:10:53;;;;;;;;;;;;;;;;;;7318688;40;1200;-19
2021/04/27 00:16:27;;;;;;;;;;;;;;;;;;7318122;40;1911;-19
2021/04/27 00:21:48;;;;;;;;;;;;;;;;;;7318607;40;1285;-18
2021/04/27 00:27:08;;;;;;;;;;;;;;;;;;7330978;40;1139;-17
2021/04/27 00:32:28;;;;;;;;;;;;;;;;;;7338360;40;1084;-19
2021/04/27 00:37:49;;;;;;;;;;;;;;;;;;7338449;40;1890;-18
2021/04/27 00:43:09;;;;;;;;;;;;;;;;;;7338274;40;1558;-18
2021/04/27 00:48:29;;;;;;;;;;;;;;;;;;7328768;40;1034;-19
2021/04/27 00:54:07;;;;;;;;;;;;;;;;;;7318137;40;1104;-19
2021/04/27 00:59:27;;;;;;;;;;;;;;;;;;7317978;40;1875;-19
2021/04/27 01:04:47;;;;;;;;;;;;;;;;;;7310313;40;1035;-19
2021/04/27 01:10:10;;;;;;;;;;;;;;;;;;7317633;40;1093;-19
2021/04/27 01:15:31;;;;;;;;;;;;;;;;;;7327233;40;1595;-20
2021/04/27 01:20:51;;;;;;;;;;;;;;;;;;7337645;40;1941;-19
2021/04/27 01:26:18;;;;;;;;;;;;;;;;;;7337570;40;1249;-19
2021/04/27 01:31:46;;;;;;;;;;;;;;;;;;7329940;40;1097;-21
2021/04/27 01:37:08;;;;;;;;;;;;;;;;;;7336299;40;1954;-18
2021/04/27 01:42:29;;;;;;;;;;;;;;;;;;7337686;40;964;-19
2021/04/27 01:47:49;;;;;;;;;;;;;;;;;;7332774;40;1003;-19
2021/04/27 01:53:13;;;;;;;;;;;;;;;;;;7309271;40;1146;-18
2021/04/27 01:58:34;;;;;;;;;;;;;;;;;;7316529;40;1891;-19
2021/04/27 02:04:10;;;;;;;;;;;;;;;;;;7316525;40;1211;-20
2021/04/27 02:09:42;;;;;;;;;;;;;;;;;;7309215;40;1005;-18
2021/04/27 02:15:18;;;;;;;;;;;;;;;;;;7316875;40;1111;-19
2021/04/27 02:20:40;;;;;;;;;;;;;;;;;;7322299;40;1939;-19
2021/04/27 02:26:20;;;;;;;;;;;;;;;;;;7324942;40;998;-18
2021/04/27 02:31:48;;;;;;;;;;;;;;;;;;7335950;40;1068;-18
2021/04/27 02:37:08;;;;;;;;;;;;;;;;;;7336912;40;1935;-19
2021/04/27 02:42:33;;;;;;;;;;;;;;;;;;7328627;40;1212;-19
2021/04/27 02:48:15;;;;;;;;;;;;;;;;;;7331139;40;1149;-19
2021/04/27 02:53:36;;;;;;;;;;;;;;;;;;7318934;40;992;-19
2021/04/27 02:58:57;;;;;;;;;;;;;;;;;;7319620;40;1887;-19
2021/04/27 03:04:18;;;;;;;;;;;;;;;;;;7311706;40;1056;-19
2021/04/27 03:10:01;;;;;;;;;;;;;;;;;;7318262;40;2076;-21
2021/04/27 03:15:22;;;;;;;;;;;;;;;;;;7326797;40;977;-19
2021/04/27 03:20:43;;;;;;;;;;;;;;;;;;7339062;40;1943;-20
2021/04/27 03:26:23;;;;;;;;;;;;;;;;;;7338363;40;1456;-19
2021/04/27 03:32:09;;;;;;;;;;;;;;;;;;7338778;40;1205;-19
2021/04/27 03:37:32;;;;;;;;;;;;;;;;;;7338219;40;1875;-20
2021/04/27 03:42:52;;;;;;;;;;;;;;;;;;7339145;40;1047;-19
2021/04/27 03:48:15;;;;;;;;;;;;;;;;;;7327497;40;995;-17
2021/04/27 03:53:50;;;;;;;;;;;;;;;;;;7318620;40;1182;-19
2021/04/27 03:59:16;;;;;;;;;;;;;;;;;;7303741;40;1883;-20
2021/04/27 04:04:38;;;;;;;;;;;;;;;;;;7317410;40;1506;-20
2021/04/27 04:10:10;;;;;;;;;;;;;;;;;;7318387;40;1849;-19
2021/04/27 04:15:31;;;;;;;;;;;;;;;;;;7317738;40;1860;-21
2021/04/27 04:20:52;;;;;;;;;;;;;;;;;;7318475;40;1928;-19
2021/04/27 04:26:31;;;;;;;;;;;;;;;;;;7326125;40;997;-19
2021/04/27 04:32:13;;;;;;;;;;;;;;;;;;7338653;40;1093;-19
2021/04/27 04:37:57;;;;;;;;;;;;;;;;;;7338543;40;1893;-19
2021/04/27 04:43:36;;;;;;;;;;;;;;;;;;7338358;40;1002;-19
2021/04/27 04:49:15;;;;;;;;;;;;;;;;;;7332156;40;1223;-21
2021/04/27 04:54:44;;;;;;;;;;;;;;;;;;7310866;40;1036;-18
2021/04/27 05:00:27;;;;;;;;;;;;;;;;;;7317714;40;1898;-19
2021/04/27 05:06:11;;;;;;;;;;;;;;;;;;7318204;40;1107;-19
2021/04/27 05:11:50;;;;;;;;;;;;;;;;;;7320984;40;1304;-21
2021/04/27 05:17:25;;;;;;;;;;;;;;;;;;7333457;40;1968;-19
2021/04/27 05:22:46;;;;;;;;;;;;;;;;;;7325209;40;1216;-18
2021/04/27 05:28:07;;;;;;;;;;;;;;;;;;7317096;40;1203;-19
2021/04/27 05:33:27;;;;;;;;;;;;;;;;;;7317422;40;1114;-20
2021/04/27 05:38:48;;;;;;;;;;;;;;;;;;7317349;40;1878;-19
2021/04/27 05:44:08;;;;;;;;;;;;;;;;;;7316691;40;1434;-18
2021/04/27 05:49:30;;;;;;;;;;;;;;;;;;7324400;40;1066;-19
2021/04/27 05:54:50;;;;;;;;;;;;;;;;;;7336488;40;1236;-19
2021/04/27 06:00:11;;;;;;;;;;;;;;;;;;7337000;40;1879;-18
2021/04/27 06:05:34;;;;;;;;;;;;;;;;;;7334911;40;1050;-20
2021/04/27 06:10:55;;;;;;;;;;;;;;;;;;7089333;40;10000052;-18
2021/04/27 06:16:16;;;;;;;;;;;;;;;;;;7330997;40;994;-18
2021/04/27 06:21:36;;;;;;;;;;;;;;;;;;7334074;40;1878;-18
2021/04/27 06:26:57;;;;;;;;;;;;;;;;;;7337353;40;981;-20
2021/04/27 06:32:31;;;;;;;;;;;;;;;;;;7335522;40;1262;-17
2021/04/27 06:38:06;;;;;;;;;;;;;;;;;;7337083;40;1931;-20
2021/04/27 06:43:26;;;;;;;;;;;;;;;;;;7336915;40;1055;-19
2021/04/27 06:48:46;;;;;;;;;;;;;;;;;;7333437;40;1067;-20
2021/04/27 06:54:07;;;;;;;;;;;;;;;;;;7316616;40;998;-19
2021/04/27 06:59:31;;;;;;;;;;;;;;;;;;7300979;40;1890;-20
2021/04/27 07:04:52;;;;;;;;;;;;;;;;;;7316695;40;954;-18
2021/04/27 07:10:12;;;;;;;;;;;;;;;;;;7323907;40;2493;-19
2021/04/27 07:15:33;;;;;;;;;;;;;;;;;;7334308;40;1901;-20
2021/04/27 07:20:54;;;;;;;;;;;;;;;;;;7329948;40;2036;-19
2021/04/27 07:26:14;;;;;;;;;;;;;;;;;;7336493;40;983;-19
2021/04/27 07:31:35;;;;;;;;;;;;;;;;;;7336110;40;1293;-20
2021/04/27 07:36:56;;;;;;;;;;;;;;;;;;7335464;40;1472;-19
2021/04/27 07:42:16;;;;;;;;;;;;;;;;;;7336324;40;1026;-19
2021/04/27 07:47:37;;;;;;;;;;;;;;;;;;7336327;40;1077;-18
2021/04/27 07:52:58;;;;;;;;;;;;;;;;;;7338288;40;1074;-18
2021/04/27 07:58:19;;;;;;;;;;;;;;;;;;7339347;40;1881;-19
2021/04/27 08:03:39;;;;;;;;;;;;;;;;;;7344431;40;1031;-19
2021/04/27 08:09:00;;;;;;;;;;;;;;;;;;7338786;40;1172;-18
2021/04/27 08:14:22;;;;;;;;;;;;;;;;;;7338917;40;1285;-19
2021/04/27 08:19:42;;;;;;;;;;;;;;;;;;7338639;40;1928;-17
2021/04/27 08:25:04;;;;;;;;;;;;;;;;;;7338819;40;1192;-19
2021/04/27 08:30:25;;;;;;;;;;;;;;;;;;7323688;40;1177;-19
2021/04/27 08:35:46;;;;;;;;;;;;;;;;;;7323443;40;968;-19
2021/04/27 08:41:06;;;;;;;;;;;;;;;;;;7316805;40;1937;-18
2021/04/27 08:46:26;;;;;;;;;;;;;;;;;;7316866;40;1266;-19
2021/04/27 08:51:47;;;;;;;;;;;;;;;;;;7331288;40;1135;-18
2021/04/27 08:57:11;;;;;;;;;;;;;;;;;;7337873;40;1364;-19
2021/04/27 09:02:31;;;;;;;;;;;;;;;;;;7338164;40;1016;-19
2021/04/27 09:07:53;;;;;;;;;;;;;;;;;;7338209;40;1176;-18
2021/04/27 09:13:15;;;;;;;;;;;;;;;;;;7342768;40;1022;-18
2021/04/27 09:18:36;;;;;;;;;;;;;;;;;;7324107;40;1932;-19
2021/04/27 09:23:56;;;;;;;;;;;;;;;;;;7327418;40;1266;-18
2021/04/27 09:29:27;;;;;;;;;;;;;;;;;;7343078;40;1270;-18
2021/04/27 09:34:47;;;;;;;;;;;;;;;;;;7337814;40;1488;-20
2021/04/27 09:40:08;;;;;;;;;;;;;;;;;;7337727;40;1887;-17
2021/04/27 09:45:39;;;;;;;;;;;;;;;;;;7340579;40;1060;-20
2021/04/27 09:51:03;;;;;;;;;;;;;;;;;;7326663;40;1240;-19
2021/04/27 09:56:34;;;;;;;;;;;;;;;;;;7336014;40;1565;-18
2021/04/27 10:02:01;;;;;;;;;;;;;;;;;;7337010;40;1883;-17
2021/04/27 10:07:21;;;;;;;;;;;;;;;;;;7336020;40;1024;-18
2021/04/27 10:12:42;;;;;;;;;;;;;;;;;;7336720;40;1435;-19
2021/04/27 10:18:04;;;;;;;;;;;;;;;;;;7336332;40;1886;-18
2021/04/27 10:23:25;;;;;;;;;;;;;;;;;;7336935;40;1252;-23
2021/04/27 10:28:59;;;;;;;;;;;;;;;;;;7329421;40;1075;-23
2021/04/27 10:34:20;;;;;;;;;;;;;;;;;;7316341;40;926;-23
2021/04/27 10:39:43;;;;;;;;;;;;;;;;;;7321435;40;1881;-21
2021/04/27 10:45:30;;;;;;;;;;;;;;;;;;7316193;40;1066;-24
2021/04/27 10:50:51;;;;;;;;;;;;;;;;;;7316528;40;1436;-23
2021/04/27 10:56:31;;;;;;;;;;;;;;;;;;7316109;40;1587;-22
2021/04/27 11:02:09;;;;;;;;;;;;;;;;;;7315764;40;1886;-23
2021/04/27 11:07:30;;;;;;;;;;;;;;;;;;7316155;40;1209;-23
2021/04/27 11:12:54;;;;;;;;;;;;;;;;;;7318565;40;1416;-24
2021/04/27 11:18:16;;;;;;;;;;;;;;;;;;7329334;40;1874;-23
2021/04/27 11:23:38;;;;;;;;;;;;;;;;;;7339163;40;1163;-22
2021/04/27 11:28:59;;;;;;;;;;;;;;;;;;7339166;40;1087;-23
2021/04/27 11:34:19;;;;;;;;;;;;;;;;;;7339033;40;1009;-23
2021/04/27 11:39:39;;;;;;;;;;;;;;;;;;7339104;40;1934;-23
2021/04/27 11:45:07;;;;;;;;;;;;;;;;;;7338909;40;1185;-23
2021/04/27 11:50:29;;;;;;;;;;;;;;;;;;7334160;40;1322;-23
2021/04/27 11:55:50;;;;;;;;;;;;;;;;;;7318692;40;997;-23
2021/04/27 12:01:25;;;;;;;;;;;;;;;;;;7318280;40;1882;-24
2021/04/27 12:06:57;;;;;;;;;;;;;;;;;;7309688;40;1028;-23
2021/04/27 12:12:18;;;;;;;;;;;;;;;;;;7323462;40;1034;-25
2021/04/27 12:17:39;;;;;;;;;;;;;;;;;;7318398;40;1017;-24
2021/04/27 12:23:04;;;;;;;;;;;;;;;;;;7317513;40;1372;-23
2021/04/27 12:28:38;;;;;;;;;;;;;;;;;;7327191;40;1051;-24
2021/04/27 12:34:01;;;;;;;;;;;;;;;;;;7335457;40;1120;-22
2021/04/27 12:39:22;;;;;;;;;;;;;;;;;;7333443;40;1956;-23
2021/04/27 12:44:44;;;;;;;;;;;;;;;;;;7333563;40;1009;-25
2021/04/27 12:50:06;;;;;;;;;;;;;;;;;;7332398;40;2479;-24
2021/04/27 12:55:27;;;;;;;;;;;;;;;;;;7334727;40;1067;-22
2021/04/27 13:00:52;;;;;;;;;;;;;;;;;;7334941;40;1948;-23
2021/04/27 13:06:41;;;;;;;;;;;;;;;;;;7334361;40;1015;-23
2021/04/27 13:12:04;;;;;;;;;;;;;;;;;;7322501;40;1136;-23
2021/04/27 13:17:31;;;;;;;;;;;;;;;;;;7332811;40;1012;-23
2021/04/27 13:22:58;;;;;;;;;;;;;;;;;;7331128;40;1874;-23
2021/04/27 13:28:19;;;;;;;;;;;;;;;;;;7333391;40;1035;-23
2021/04/27 13:33:55;;;;;;;;;;;;;;;;;;7334492;40;1132;-23
2021/04/27 13:39:15;;;;;;;;;;;;;;;;;;7334771;40;1953;-24
2021/04/27 13:44:36;;;;;;;;;;;;;;;;;;7333958;40;1047;-24
2021/04/27 13:49:56;;;;;;;;;;;;;;;;;;7333292;40;2388;-24
2021/04/27 13:55:17;;;;;;;;;;;;;;;;;;7070403;40;10000684;-23
2021/04/27 14:00:41;;;;;;;;;;;;;;;;;;7311646;40;1936;-23
2021/04/27 14:06:01;;;;;;;;;;;;;;;;;;7313704;40;1120;-22
2021/04/27 14:11:22;;;;;;;;;;;;;;;;;;7319116;40;1059;-24
2021/04/27 14:16:43;;;;;;;;;;;;;;;;;;7313691;40;957;-23
2021/04/27 14:22:03;;;;;;;;;;;;;;;;;;7327176;40;1926;-23
2021/04/27 14:27:23;;;;;;;;;;;;;;;;;;7332626;40;1282;-23
2021/04/27 14:32:45;;;;;;;;;;;;;;;;;;7333218;40;1316;-23
2021/04/27 14:38:06;;;;;;;;;;;;;;;;;;7333348;40;1894;-22
2021/04/27 14:43:26;;;;;;;;;;;;;;;;;;7334389;40;1089;-24
2021/04/27 14:48:47;;;;;;;;;;;;;;;;;;7335970;40;2541;-24
2021/04/27 14:54:08;;;;;;;;;;;;;;;;;;7321376;40;986;-23
2021/04/27 14:59:28;;;;;;;;;;;;;;;;;;7318827;40;1955;-23
2021/04/27 15:04:48;;;;;;;;;;;;;;;;;;7318498;40;1141;-24
2021/04/27 15:10:11;;;;;;;;;;;;;;;;;;7318937;40;1049;-23
2021/04/27 15:15:32;;;;;;;;;;;;;;;;;;7317189;40;1175;-23
2021/04/27 15:20:52;;;;;;;;;;;;;;;;;;7328847;40;1952;-24
2021/04/27 15:26:13;;;;;;;;;;;;;;;;;;7329527;40;1296;-23
2021/04/27 15:31:37;;;;;;;;;;;;;;;;;;7334165;40;1637;-23
2021/04/27 15:36:58;;;;;;;;;;;;;;;;;;7338781;40;1457;-24
2021/04/27 15:42:19;;;;;;;;;;;;;;;;;;7338286;40;1947;-24
2021/04/27 15:47:40;;;;;;;;;;;;;;;;;;7338690;40;1136;-25
2021/04/27 15:53:03;;;;;;;;;;;;;;;;;;6698870;40;10001011;-24
2021/04/27 15:58:24;;;;;;;;;;;;;;;;;;6056242;40;10000933;-24
2021/04/27 16:03:44;;;;;;;;;;;;;;;;;;7340438;40;1044;-24
2021/04/27 16:09:05;;;;;;;;;;;;;;;;;;7337449;40;1472;-23
2021/04/27 16:14:26;;;;;;;;;;;;;;;;;;7343615;40;1432;-24
2021/04/27 16:19:46;;;;;;;;;;;;;;;;;;7340935;40;1944;-23
2021/04/27 16:25:07;;;;;;;;;;;;;;;;;;7322151;40;15366;-24
2021/04/27 16:30:28;;;;;;;;;;;;;;;;;;7337492;40;1280;-25
2021/04/27 16:35:49;;;;;;;;;;;;;;;;;;7337813;40;983;-23
2021/04/27 16:41:11;;;;;;;;;;;;;;;;;;7315724;40;1899;-24
2021/04/27 16:46:31;;;;;;;;;;;;;;;;;;7309994;40;1053;-25
2021/04/27 16:51:52;;;;;;;;;;;;;;;;;;7323960;40;1402;-23
2021/04/27 16:57:12;;;;;;;;;;;;;;;;;;7337112;40;1448;-23
2021/04/27 17:02:32;;;;;;;;;;;;;;;;;;7336294;40;1882;-24
2021/04/27 17:07:54;;;;;;;;;;;;;;;;;;7335205;40;1192;-24
2021/04/27 17:13:16;;;;;;;;;;;;;;;;;;5432197;40;10001119;-23
2021/04/27 17:18:36;;;;;;;;;;;;;;;;;;6059209;40;10000473;-23
2021/04/27 17:23:56;;;;;;;;;;;;;;;;;;7329707;40;1347;-23
2021/04/27 17:29:17;;;;;;;;;;;;;;;;;;7328698;40;1197;-22
2021/04/27 17:34:37;;;;;;;;;;;;;;;;;;7337658;40;1032;-23
2021/04/27 17:39:58;;;;;;;;;;;;;;;;;;7334389;40;2481;-23
2021/04/27 17:45:18;;;;;;;;;;;;;;;;;;7334579;40;1001;-23
2021/04/27 17:50:39;;;;;;;;;;;;;;;;;;7333844;40;1083;-22
2021/04/27 17:55:59;;;;;;;;;;;;;;;;;;7314094;40;1020;-24
2021/04/27 18:01:20;;;;;;;;;;;;;;;;;;7313916;40;1959;-23
2021/04/27 18:06:40;;;;;;;;;;;;;;;;;;7313616;40;1318;-22
2021/04/27 18:12:15;;;;;;;;;;;;;;;;;;7313491;40;1109;-22
2021/04/27 18:17:36;;;;;;;;;;;;;;;;;;7313916;40;1308;-22
2021/04/27 18:22:56;;;;;;;;;;;;;;;;;;7316561;40;1879;-24
2021/04/27 18:28:17;;;;;;;;;;;;;;;;;;7335709;40;1443;-24
2021/04/27 18:33:37;;;;;;;;;;;;;;;;;;7335527;40;1256;-24
2021/04/27 18:38:57;;;;;;;;;;;;;;;;;;7092093;40;10000452;-24
2021/04/27 18:44:18;;;;;;;;;;;;;;;;;;7336056;40;1898;-24
2021/04/27 18:49:39;;;;;;;;;;;;;;;;;;7336467;40;1363;-24
2021/04/27 18:54:59;;;;;;;;;;;;;;;;;;7336559;40;959;-23
2021/04/27 19:00:20;;;;;;;;;;;;;;;;;;7335634;40;1867;-23
2021/04/27 19:05:41;;;;;;;;;;;;;;;;;;7336608;40;976;-23
2021/04/27 19:11:01;;;;;;;;;;;;;;;;;;7336469;40;1225;-22
2021/04/27 19:16:23;;;;;;;;;;;;;;;;;;7336297;40;1283;-22
2021/04/27 19:21:43;;;;;;;;;;;;;;;;;;7325440;40;1888;-22
2021/04/27 19:27:04;;;;;;;;;;;;;;;;;;7335557;40;1133;-23
2021/04/27 19:32:25;;;;;;;;;;;;;;;;;;7335527;40;1194;-25
2021/04/27 19:37:45;;;;;;;;;;;;;;;;;;7336032;40;2476;-24
2021/04/27 19:43:06;;;;;;;;;;;;;;;;;;7320665;40;2209;-23
2021/04/27 19:48:27;;;;;;;;;;;;;;;;;;7336077;40;1096;-23
2021/04/27 19:53:47;;;;;;;;;;;;;;;;;;7335796;40;1263;-23
2021/04/27 19:59:08;;;;;;;;;;;;;;;;;;7334867;40;1886;-24
2021/04/27 20:04:29;;;;;;;;;;;;;;;;;;7334008;40;1256;-29
2021/04/27 20:09:49;;;;;;;;;;;;;;;;;;7335309;40;1043;-22
2021/04/27 20:15:11;;;;;;;;;;;;;;;;;;7320055;40;1246;-23
2021/04/27 20:20:32;;;;;;;;;;;;;;;;;;7334635;40;1924;-24
2021/04/27 20:25:53;;;;;;;;;;;;;;;;;;7335551;40;984;-23
2021/04/27 20:31:13;;;;;;;;;;;;;;;;;;7330984;40;1090;-23
2021/04/27 20:36:34;;;;;;;;;;;;;;;;;;7333461;40;1520;-23
2021/04/27 20:42:09;;;;;;;;;;;;;;;;;;7327031;40;1950;-24
2021/04/27 20:47:30;;;;;;;;;;;;;;;;;;7334690;40;1087;-24
2021/04/27 20:52:50;;;;;;;;;;;;;;;;;;7330091;40;1072;-22
2021/04/27 20:58:10;;;;;;;;;;;;;;;;;;7314826;40;1117;-22
2021/04/27 21:03:31;;;;;;;;;;;;;;;;;;7328866;40;1894;-24
2021/04/27 21:08:51;;;;;;;;;;;;;;;;;;7334687;40;970;-23
2021/04/27 21:14:12;;;;;;;;;;;;;;;;;;7334492;40;1571;-24
2021/04/27 21:19:33;;;;;;;;;;;;;;;;;;7333934;40;1927;-23
2021/04/27 21:24:54;;;;;;;;;;;;;;;;;;7334726;40;1058;-26
2021/04/27 21:30:15;;;;;;;;;;;;;;;;;;7335009;40;1214;-23
2021/04/27 21:35:35;;;;;;;;;;;;;;;;;;7337900;40;964;-23
2021/04/27 21:40:56;;;;;;;;;;;;;;;;;;7322197;40;1932;-22
2021/04/27 21:46:16;;;;;;;;;;;;;;;;;;7337376;40;1154;-24
2021/04/27 21:51:37;;;;;;;;;;;;;;;;;;7336952;40;1020;-22
2021/04/27 21:56:57;;;;;;;;;;;;;;;;;;7316520;40;1548;-21
2021/04/27 22:02:19;;;;;;;;;;;;;;;;;;7315880;40;1875;-24
2021/04/27 22:07:55;;;;;;;;;;;;;;;;;;7309743;40;1088;-22
2021/04/27 22:13:17;;;;;;;;;;;;;;;;;;7337546;40;1159;-23
2021/04/27 22:18:37;;;;;;;;;;;;;;;;;;7337156;40;1300;-22
2021/04/27 22:24:12;;;;;;;;;;;;;;;;;;7336998;40;1106;-24
2021/04/27 22:29:34;;;;;;;;;;;;;;;;;;7336427;40;1075;-23
2021/04/27 22:34:54;;;;;;;;;;;;;;;;;;7333107;40;2012;-23
2021/04/27 22:40:17;;;;;;;;;;;;;;;;;;7316426;40;1867;-23
2021/04/27 22:45:37;;;;;;;;;;;;;;;;;;7316477;40;1001;-24
2021/04/27 22:50:58;;;;;;;;;;;;;;;;;;7316059;40;1098;-23
2021/04/27 22:56:19;;;;;;;;;;;;;;;;;;7333167;40;1600;-22
2021/04/27 23:01:39;;;;;;;;;;;;;;;;;;7327916;40;1884;-22
2021/04/27 23:07:00;;;;;;;;;;;;;;;;;;7338261;40;1078;-23
2021/04/27 23:12:20;;;;;;;;;;;;;;;;;;7339709;40;994;-23
2021/04/27 23:17:41;;;;;;;;;;;;;;;;;;7339444;40;1197;-23
2021/04/27 23:23:02;;;;;;;;;;;;;;;;;;7326571;40;1940;-24
2021/04/27 23:28:23;;;;;;;;;;;;;;;;;;7318806;40;1445;-24
2021/04/27 23:33:43;;;;;;;;;;;;;;;;;;7278799;40;1035;-24
2021/04/27 23:39:03;;;;;;;;;;;;;;;;;;7278411;40;1273;-23
2021/04/27 23:44:24;;;;;;;;;;;;;;;;;;7278821;40;962;-23
2021/04/27 23:49:45;;;;;;;;;;;;;;;;;;7284035;40;1080;-24
2021/04/27 23:55:20;;;;;;;;;;;;;;;;;;7278158;40;1070;-22
